Terminal Aerodrome Forecast
Issued by NWS

Home | Current Version | Previous Version | Text Only | Print | Product List | Glossary On
Versions: 1 2 3 4 5 6 7 8 9 10 11 12 13 14 15 16
000
FTUS44 KLIX 191100
TAFMSY
TAF
KMSY 191120Z 1912/2012 10005KT P6SM BKN080
     FM191500 10009KT P6SM BKN035
     FM192200 11010KT P6SM SCT120
     FM200300 11006KT P6SM SCT250=

USA.gov is the U.S. government's official web portal to all federal, state and local government web resources and services.